sensor_id;sensor_type;location;lat;lon;timestamp;P1;durP1;ratioP1;P2;durP2;ratioP2
47483;SDS011;54076;50.322;18.650;2023-04-03T00:04:59;13.80;;;6.60;;
47483;SDS011;54076;50.322;18.650;2023-04-03T00:10:00;12.30;;;6.20;;
47483;SDS011;54076;50.322;18.650;2023-04-03T00:15:01;12.50;;;6.80;;
47483;SDS011;54076;50.322;18.650;2023-04-03T00:20:03;12.00;;;6.20;;
47483;SDS011;54076;50.322;18.650;2023-04-03T00:25:06;13.10;;;6.10;;
47483;SDS011;54076;50.322;18.650;2023-04-03T00:30:09;11.20;;;5.90;;
47483;SDS011;54076;50.322;18.650;2023-04-03T00:35:13;11.30;;;6.00;;
47483;SDS011;54076;50.322;18.650;2023-04-03T00:40:16;10.50;;;5.40;;
47483;SDS011;54076;50.322;18.650;2023-04-03T00:50:19;11.10;;;5.70;;
47483;SDS011;54076;50.322;18.650;2023-04-03T00:55:20;9.30;;;5.20;;
47483;SDS011;54076;50.322;18.650;2023-04-03T01:00:22;9.60;;;4.80;;
47483;SDS011;54076;50.322;18.650;2023-04-03T01:05:24;8.60;;;4.30;;
47483;SDS011;54076;50.322;18.650;2023-04-03T01:10:25;11.00;;;4.60;;
47483;SDS011;54076;50.322;18.650;2023-04-03T01:15:27;9.80;;;4.00;;
47483;SDS011;54076;50.322;18.650;2023-04-03T01:26:16;8.00;;;4.00;;
47483;SDS011;54076;50.322;18.650;2023-04-03T01:36:36;8.50;;;3.60;;
47483;SDS011;54076;50.322;18.650;2023-04-03T01:41:37;8.80;;;3.40;;
47483;SDS011;54076;50.322;18.650;2023-04-03T01:46:38;8.30;;;3.20;;
47483;SDS011;54076;50.322;18.650;2023-04-03T01:51:39;7.90;;;3.10;;
47483;SDS011;54076;50.322;18.650;2023-04-03T01:56:40;6.60;;;3.00;;
47483;SDS011;54076;50.322;18.650;2023-04-03T02:01:42;6.60;;;3.00;;
47483;SDS011;54076;50.322;18.650;2023-04-03T02:06:45;7.70;;;3.10;;
47483;SDS011;54076;50.322;18.650;2023-04-03T02:11:46;7.40;;;2.60;;
47483;SDS011;54076;50.322;18.650;2023-04-03T02:16:47;7.60;;;3.10;;
47483;SDS011;54076;50.322;18.650;2023-04-03T02:21:48;7.60;;;3.70;;
47483;SDS011;54076;50.322;18.650;2023-04-03T02:26:49;7.40;;;2.70;;
47483;SDS011;54076;50.322;18.650;2023-04-03T02:31:51;6.00;;;2.70;;
47483;SDS011;54076;50.322;18.650;2023-04-03T02:36:52;9.20;;;3.40;;
47483;SDS011;54076;50.322;18.650;2023-04-03T02:41:53;8.20;;;3.00;;
47483;SDS011;54076;50.322;18.650;2023-04-03T02:46:54;8.20;;;2.90;;
47483;SDS011;54076;50.322;18.650;2023-04-03T02:51:55;9.40;;;2.90;;
47483;SDS011;54076;50.322;18.650;2023-04-03T02:56:57;6.80;;;2.90;;
47483;SDS011;54076;50.322;18.650;2023-04-03T03:01:58;5.60;;;2.80;;
47483;SDS011;54076;50.322;18.650;2023-04-03T03:06:59;8.90;;;3.40;;
47483;SDS011;54076;50.322;18.650;2023-04-03T03:12:00;6.90;;;3.00;;
47483;SDS011;54076;50.322;18.650;2023-04-03T03:17:01;6.00;;;2.80;;
47483;SDS011;54076;50.322;18.650;2023-04-03T03:22:03;9.30;;;3.30;;
47483;SDS011;54076;50.322;18.650;2023-04-03T03:27:04;9.60;;;3.40;;
47483;SDS011;54076;50.322;18.650;2023-04-03T03:32:05;6.60;;;2.90;;
47483;SDS011;54076;50.322;18.650;2023-04-03T03:37:06;8.10;;;3.00;;
47483;SDS011;54076;50.322;18.650;2023-04-03T03:42:07;6.00;;;3.10;;
47483;SDS011;54076;50.322;18.650;2023-04-03T03:47:08;6.70;;;3.10;;
47483;SDS011;54076;50.322;18.650;2023-04-03T03:52:11;7.90;;;3.00;;
47483;SDS011;54076;50.322;18.650;2023-04-03T03:57:12;6.60;;;2.70;;
47483;SDS011;54076;50.322;18.650;2023-04-03T04:02:13;8.30;;;3.20;;
47483;SDS011;54076;50.322;18.650;2023-04-03T04:07:14;7.70;;;3.50;;
47483;SDS011;54076;50.322;18.650;2023-04-03T04:12:15;7.90;;;3.10;;
47483;SDS011;54076;50.322;18.650;2023-04-03T04:17:16;6.10;;;2.70;;
47483;SDS011;54076;50.322;18.650;2023-04-03T04:22:17;4.90;;;2.70;;
47483;SDS011;54076;50.322;18.650;2023-04-03T04:27:19;6.80;;;3.80;;
47483;SDS011;54076;50.322;18.650;2023-04-03T04:32:20;7.60;;;3.40;;
47483;SDS011;54076;50.322;18.650;2023-04-03T04:37:21;5.90;;;3.10;;
47483;SDS011;54076;50.322;18.650;2023-04-03T04:42:22;7.60;;;3.40;;
47483;SDS011;54076;50.322;18.650;2023-04-03T04:47:23;7.10;;;3.00;;
47483;SDS011;54076;50.322;18.650;2023-04-03T04:52:24;5.90;;;2.80;;
47483;SDS011;54076;50.322;18.650;2023-04-03T04:57:25;5.50;;;2.70;;
47483;SDS011;54076;50.322;18.650;2023-04-03T05:02:26;7.10;;;2.90;;
47483;SDS011;54076;50.322;18.650;2023-04-03T05:07:28;6.80;;;2.70;;
47483;SDS011;54076;50.322;18.650;2023-04-03T05:12:29;6.10;;;2.80;;
47483;SDS011;54076;50.322;18.650;2023-04-03T05:17:30;11.20;;;3.50;;
47483;SDS011;54076;50.322;18.650;2023-04-03T05:22:31;8.70;;;3.40;;
47483;SDS011;54076;50.322;18.650;2023-04-03T05:27:32;9.20;;;3.00;;
47483;SDS011;54076;50.322;18.650;2023-04-03T05:32:33;11.10;;;3.00;;
47483;SDS011;54076;50.322;18.650;2023-04-03T05:37:35;7.80;;;3.40;;
47483;SDS011;54076;50.322;18.650;2023-04-03T05:42:37;10.30;;;3.10;;
47483;SDS011;54076;50.322;18.650;2023-04-03T05:47:38;11.00;;;3.50;;
47483;SDS011;54076;50.322;18.650;2023-04-03T05:52:41;8.70;;;3.10;;
47483;SDS011;54076;50.322;18.650;2023-04-03T05:57:45;7.80;;;3.00;;
47483;SDS011;54076;50.322;18.650;2023-04-03T06:02:46;7.90;;;3.10;;
47483;SDS011;54076;50.322;18.650;2023-04-03T06:07:47;6.20;;;3.00;;
47483;SDS011;54076;50.322;18.650;2023-04-03T06:12:50;8.10;;;2.70;;
47483;SDS011;54076;50.322;18.650;2023-04-03T06:17:51;8.00;;;3.60;;
47483;SDS011;54076;50.322;18.650;2023-04-03T06:22:53;8.20;;;2.90;;
47483;SDS011;54076;50.322;18.650;2023-04-03T06:27:54;7.40;;;3.00;;
47483;SDS011;54076;50.322;18.650;2023-04-03T06:32:56;6.40;;;3.10;;
47483;SDS011;54076;50.322;18.650;2023-04-03T06:37:57;7.10;;;3.10;;
47483;SDS011;54076;50.322;18.650;2023-04-03T06:42:58;6.10;;;2.80;;
47483;SDS011;54076;50.322;18.650;2023-04-03T06:47:59;7.10;;;3.10;;
47483;SDS011;54076;50.322;18.650;2023-04-03T06:53:00;6.40;;;2.90;;
47483;SDS011;54076;50.322;18.650;2023-04-03T06:58:02;7.60;;;3.20;;
47483;SDS011;54076;50.322;18.650;2023-04-03T07:03:04;13.70;;;3.00;;
47483;SDS011;54076;50.322;18.650;2023-04-03T07:08:05;8.40;;;3.00;;
47483;SDS011;54076;50.322;18.650;2023-04-03T07:13:06;5.60;;;2.70;;
47483;SDS011;54076;50.322;18.650;2023-04-03T07:18:07;7.10;;;2.90;;
47483;SDS011;54076;50.322;18.650;2023-04-03T07:23:09;7.90;;;3.00;;
47483;SDS011;54076;50.322;18.650;2023-04-03T07:28:11;7.40;;;3.20;;
47483;SDS011;54076;50.322;18.650;2023-04-03T07:33:14;6.90;;;2.70;;
47483;SDS011;54076;50.322;18.650;2023-04-03T07:38:16;6.80;;;3.10;;
47483;SDS011;54076;50.322;18.650;2023-04-03T07:43:18;7.20;;;2.80;;
47483;SDS011;54076;50.322;18.650;2023-04-03T07:48:23;7.50;;;3.00;;
47483;SDS011;54076;50.322;18.650;2023-04-03T07:53:27;6.20;;;2.60;;
47483;SDS011;54076;50.322;18.650;2023-04-03T07:58:29;8.40;;;3.40;;
47483;SDS011;54076;50.322;18.650;2023-04-03T08:03:31;7.50;;;3.00;;
47483;SDS011;54076;50.322;18.650;2023-04-03T08:08:32;9.80;;;2.80;;
47483;SDS011;54076;50.322;18.650;2023-04-03T08:13:34;7.60;;;2.80;;
47483;SDS011;54076;50.322;18.650;2023-04-03T08:18:36;5.90;;;2.50;;
47483;SDS011;54076;50.322;18.650;2023-04-03T08:23:39;7.60;;;2.90;;
47483;SDS011;54076;50.322;18.650;2023-04-03T08:28:42;6.80;;;2.40;;
47483;SDS011;54076;50.322;18.650;2023-04-03T08:33:44;4.30;;;1.70;;
47483;SDS011;54076;50.322;18.650;2023-04-03T08:38:46;5.70;;;2.10;;
47483;SDS011;54076;50.322;18.650;2023-04-03T08:49:40;6.90;;;2.10;;
47483;SDS011;54076;50.322;18.650;2023-04-03T08:54:53;4.10;;;1.50;;
47483;SDS011;54076;50.322;18.650;2023-04-03T08:59:58;4.00;;;1.90;;
47483;SDS011;54076;50.322;18.650;2023-04-03T09:05:12;3.90;;;1.80;;
47483;SDS011;54076;50.322;18.650;2023-04-03T09:10:24;4.90;;;1.90;;
47483;SDS011;54076;50.322;18.650;2023-04-03T09:15:29;4.50;;;2.00;;
47483;SDS011;54076;50.322;18.650;2023-04-03T09:26:29;3.40;;;1.70;;
47483;SDS011;54076;50.322;18.650;2023-04-03T09:31:38;5.10;;;2.10;;
47483;SDS011;54076;50.322;18.650;2023-04-03T09:36:44;5.80;;;2.00;;
47483;SDS011;54076;50.322;18.650;2023-04-03T09:47:29;4.90;;;1.90;;
47483;SDS011;54076;50.322;18.650;2023-04-03T09:52:33;6.00;;;1.90;;
47483;SDS011;54076;50.322;18.650;2023-04-03T09:57:35;5.20;;;2.10;;
47483;SDS011;54076;50.322;18.650;2023-04-03T10:02:39;4.20;;;2.10;;
47483;SDS011;54076;50.322;18.650;2023-04-03T10:07:42;4.50;;;2.00;;
47483;SDS011;54076;50.322;18.650;2023-04-03T10:12:43;6.50;;;2.00;;
47483;SDS011;54076;50.322;18.650;2023-04-03T10:18:00;5.60;;;2.10;;
47483;SDS011;54076;50.322;18.650;2023-04-03T10:33:52;4.70;;;2.20;;
47483;SDS011;54076;50.322;18.650;2023-04-03T11:01:40;6.50;;;2.30;;
47483;SDS011;54076;50.322;18.650;2023-04-03T11:07:08;5.40;;;2.30;;
47483;SDS011;54076;50.322;18.650;2023-04-03T11:17:53;6.60;;;2.80;;
47483;SDS011;54076;50.322;18.650;2023-04-03T11:28:26;4.90;;;2.30;;
47483;SDS011;54076;50.322;18.650;2023-04-03T11:33:30;7.10;;;2.20;;
47483;SDS011;54076;50.322;18.650;2023-04-03T11:38:56;5.50;;;2.10;;
47483;SDS011;54076;50.322;18.650;2023-04-03T11:44:02;4.70;;;2.00;;
47483;SDS011;54076;50.322;18.650;2023-04-03T11:49:49;5.10;;;2.20;;
47483;SDS011;54076;50.322;18.650;2023-04-03T11:54:48;5.60;;;2.10;;
47483;SDS011;54076;50.322;18.650;2023-04-03T11:59:49;6.30;;;2.00;;
47483;SDS011;54076;50.322;18.650;2023-04-03T12:05:28;6.20;;;2.00;;
47483;SDS011;54076;50.322;18.650;2023-04-03T12:10:30;4.10;;;1.90;;
47483;SDS011;54076;50.322;18.650;2023-04-03T12:15:44;5.20;;;2.20;;
47483;SDS011;54076;50.322;18.650;2023-04-03T12:20:55;4.30;;;1.90;;
47483;SDS011;54076;50.322;18.650;2023-04-03T12:26:21;5.90;;;2.00;;
47483;SDS011;54076;50.322;18.650;2023-04-03T12:31:36;4.00;;;2.00;;
47483;SDS011;54076;50.322;18.650;2023-04-03T12:37:22;5.30;;;2.00;;
47483;SDS011;54076;50.322;18.650;2023-04-03T12:47:44;5.40;;;2.00;;
47483;SDS011;54076;50.322;18.650;2023-04-03T12:53:12;4.90;;;2.20;;
47483;SDS011;54076;50.322;18.650;2023-04-03T12:58:22;5.60;;;2.30;;
47483;SDS011;54076;50.322;18.650;2023-04-03T13:03:25;6.50;;;2.10;;
47483;SDS011;54076;50.322;18.650;2023-04-03T13:08:30;4.20;;;2.00;;
47483;SDS011;54076;50.322;18.650;2023-04-03T13:13:31;6.00;;;2.80;;
47483;SDS011;54076;50.322;18.650;2023-04-03T13:18:34;4.40;;;1.80;;
47483;SDS011;54076;50.322;18.650;2023-04-03T13:23:38;4.30;;;2.30;;
47483;SDS011;54076;50.322;18.650;2023-04-03T13:28:43;4.90;;;2.50;;
47483;SDS011;54076;50.322;18.650;2023-04-03T13:33:59;8.00;;;3.20;;
47483;SDS011;54076;50.322;18.650;2023-04-03T13:55:28;4.40;;;2.40;;
47483;SDS011;54076;50.322;18.650;2023-04-03T14:00:39;5.70;;;2.10;;
47483;SDS011;54076;50.322;18.650;2023-04-03T14:05:52;5.40;;;2.60;;
47483;SDS011;54076;50.322;18.650;2023-04-03T14:10:54;6.20;;;2.40;;
47483;SDS011;54076;50.322;18.650;2023-04-03T14:15:55;5.60;;;2.40;;
47483;SDS011;54076;50.322;18.650;2023-04-03T14:20:56;4.90;;;2.30;;
47483;SDS011;54076;50.322;18.650;2023-04-03T14:25:58;5.70;;;2.20;;
47483;SDS011;54076;50.322;18.650;2023-04-03T14:31:01;6.50;;;2.40;;
47483;SDS011;54076;50.322;18.650;2023-04-03T14:36:10;8.50;;;2.60;;
47483;SDS011;54076;50.322;18.650;2023-04-03T14:41:15;6.40;;;2.90;;
47483;SDS011;54076;50.322;18.650;2023-04-03T14:46:31;6.50;;;2.30;;
47483;SDS011;54076;50.322;18.650;2023-04-03T14:51:35;6.00;;;2.70;;
47483;SDS011;54076;50.322;18.650;2023-04-03T14:56:38;6.30;;;2.30;;
47483;SDS011;54076;50.322;18.650;2023-04-03T15:01:40;6.00;;;2.70;;
47483;SDS011;54076;50.322;18.650;2023-04-03T15:06:41;6.30;;;2.60;;
47483;SDS011;54076;50.322;18.650;2023-04-03T15:11:43;5.90;;;3.00;;
47483;SDS011;54076;50.322;18.650;2023-04-03T15:16:44;7.30;;;3.20;;
47483;SDS011;54076;50.322;18.650;2023-04-03T15:21:45;5.90;;;2.90;;
47483;SDS011;54076;50.322;18.650;2023-04-03T15:26:46;5.50;;;2.80;;
47483;SDS011;54076;50.322;18.650;2023-04-03T15:31:48;5.60;;;2.60;;
47483;SDS011;54076;50.322;18.650;2023-04-03T15:36:50;5.30;;;2.50;;
47483;SDS011;54076;50.322;18.650;2023-04-03T15:41:53;5.50;;;2.70;;
47483;SDS011;54076;50.322;18.650;2023-04-03T15:46:55;7.40;;;2.70;;
47483;SDS011;54076;50.322;18.650;2023-04-03T15:51:56;6.20;;;2.60;;
47483;SDS011;54076;50.322;18.650;2023-04-03T15:56:57;5.20;;;2.50;;
47483;SDS011;54076;50.322;18.650;2023-04-03T16:01:58;6.40;;;2.60;;
47483;SDS011;54076;50.322;18.650;2023-04-03T16:07:03;7.00;;;2.70;;
47483;SDS011;54076;50.322;18.650;2023-04-03T16:12:04;6.30;;;2.70;;
47483;SDS011;54076;50.322;18.650;2023-04-03T16:17:05;8.60;;;2.90;;
47483;SDS011;54076;50.322;18.650;2023-04-03T16:22:07;7.10;;;3.20;;
47483;SDS011;54076;50.322;18.650;2023-04-03T16:27:08;6.20;;;2.40;;
47483;SDS011;54076;50.322;18.650;2023-04-03T16:32:09;5.10;;;2.50;;
47483;SDS011;54076;50.322;18.650;2023-04-03T16:37:10;5.10;;;2.60;;
47483;SDS011;54076;50.322;18.650;2023-04-03T16:42:11;5.60;;;2.50;;
47483;SDS011;54076;50.322;18.650;2023-04-03T16:47:12;5.90;;;3.00;;
47483;SDS011;54076;50.322;18.650;2023-04-03T16:52:14;8.60;;;3.20;;
47483;SDS011;54076;50.322;18.650;2023-04-03T16:57:15;4.20;;;2.20;;
47483;SDS011;54076;50.322;18.650;2023-04-03T17:02:17;5.60;;;2.40;;
47483;SDS011;54076;50.322;18.650;2023-04-03T17:07:19;6.30;;;2.80;;
47483;SDS011;54076;50.322;18.650;2023-04-03T17:12:22;6.50;;;2.70;;
47483;SDS011;54076;50.322;18.650;2023-04-03T17:17:23;6.90;;;3.10;;
47483;SDS011;54076;50.322;18.650;2023-04-03T17:22:27;6.80;;;2.90;;
47483;SDS011;54076;50.322;18.650;2023-04-03T17:27:29;6.20;;;2.80;;
47483;SDS011;54076;50.322;18.650;2023-04-03T17:32:30;5.80;;;2.90;;
47483;SDS011;54076;50.322;18.650;2023-04-03T17:37:31;5.10;;;2.70;;
47483;SDS011;54076;50.322;18.650;2023-04-03T17:42:32;7.40;;;3.20;;
47483;SDS011;54076;50.322;18.650;2023-04-03T17:47:34;7.20;;;2.80;;
47483;SDS011;54076;50.322;18.650;2023-04-03T17:52:35;6.40;;;2.90;;
47483;SDS011;54076;50.322;18.650;2023-04-03T17:57:36;6.20;;;3.40;;
47483;SDS011;54076;50.322;18.650;2023-04-03T18:02:37;6.80;;;2.80;;
47483;SDS011;54076;50.322;18.650;2023-04-03T18:07:39;7.70;;;3.10;;
47483;SDS011;54076;50.322;18.650;2023-04-03T18:12:40;7.30;;;3.30;;
47483;SDS011;54076;50.322;18.650;2023-04-03T18:17:42;6.70;;;2.90;;
47483;SDS011;54076;50.322;18.650;2023-04-03T18:22:43;6.60;;;3.10;;
47483;SDS011;54076;50.322;18.650;2023-04-03T18:27:45;8.60;;;3.50;;
47483;SDS011;54076;50.322;18.650;2023-04-03T18:32:47;7.30;;;3.40;;
47483;SDS011;54076;50.322;18.650;2023-04-03T18:37:48;6.80;;;3.20;;
47483;SDS011;54076;50.322;18.650;2023-04-03T18:42:50;6.90;;;3.00;;
47483;SDS011;54076;50.322;18.650;2023-04-03T18:47:51;27.80;;;10.10;;
47483;SDS011;54076;50.322;18.650;2023-04-03T18:52:52;9.50;;;3.50;;
47483;SDS011;54076;50.322;18.650;2023-04-03T18:57:53;8.20;;;3.90;;
47483;SDS011;54076;50.322;18.650;2023-04-03T19:02:55;9.40;;;3.70;;
47483;SDS011;54076;50.322;18.650;2023-04-03T19:07:56;9.20;;;3.90;;
47483;SDS011;54076;50.322;18.650;2023-04-03T19:12:57;8.30;;;3.10;;
47483;SDS011;54076;50.322;18.650;2023-04-03T19:17:58;10.10;;;4.20;;
47483;SDS011;54076;50.322;18.650;2023-04-03T19:23:00;8.90;;;3.90;;
47483;SDS011;54076;50.322;18.650;2023-04-03T19:28:01;9.70;;;4.10;;
47483;SDS011;54076;50.322;18.650;2023-04-03T19:33:02;12.30;;;4.10;;
47483;SDS011;54076;50.322;18.650;2023-04-03T19:38:03;8.60;;;4.00;;
47483;SDS011;54076;50.322;18.650;2023-04-03T19:43:04;9.70;;;3.90;;
47483;SDS011;54076;50.322;18.650;2023-04-03T19:48:06;10.40;;;4.00;;
47483;SDS011;54076;50.322;18.650;2023-04-03T19:53:07;11.20;;;3.90;;
47483;SDS011;54076;50.322;18.650;2023-04-03T19:58:10;9.90;;;4.40;;
47483;SDS011;54076;50.322;18.650;2023-04-03T20:03:12;7.20;;;3.20;;
47483;SDS011;54076;50.322;18.650;2023-04-03T20:08:13;9.70;;;4.00;;
47483;SDS011;54076;50.322;18.650;2023-04-03T20:13:14;10.40;;;4.10;;
47483;SDS011;54076;50.322;18.650;2023-04-03T20:18:18;9.70;;;4.10;;
47483;SDS011;54076;50.322;18.650;2023-04-03T20:23:20;9.60;;;3.60;;
47483;SDS011;54076;50.322;18.650;2023-04-03T20:28:22;11.50;;;4.20;;
47483;SDS011;54076;50.322;18.650;2023-04-03T20:33:24;14.60;;;4.30;;
47483;SDS011;54076;50.322;18.650;2023-04-03T20:38:28;11.40;;;4.50;;
47483;SDS011;54076;50.322;18.650;2023-04-03T20:43:29;10.40;;;4.70;;
47483;SDS011;54076;50.322;18.650;2023-04-03T20:48:31;12.20;;;5.30;;
47483;SDS011;54076;50.322;18.650;2023-04-03T20:53:32;14.10;;;4.90;;
47483;SDS011;54076;50.322;18.650;2023-04-03T20:58:35;12.90;;;4.70;;
47483;SDS011;54076;50.322;18.650;2023-04-03T21:03:38;15.60;;;5.40;;
47483;SDS011;54076;50.322;18.650;2023-04-03T21:20:35;12.20;;;4.80;;
47483;SDS011;54076;50.322;18.650;2023-04-03T21:25:37;13.10;;;5.30;;
47483;SDS011;54076;50.322;18.650;2023-04-03T21:30:38;12.50;;;4.60;;
47483;SDS011;54076;50.322;18.650;2023-04-03T21:35:39;10.20;;;4.70;;
47483;SDS011;54076;50.322;18.650;2023-04-03T21:40:41;10.70;;;5.10;;
47483;SDS011;54076;50.322;18.650;2023-04-03T21:45:46;10.70;;;4.80;;
47483;SDS011;54076;50.322;18.650;2023-04-03T21:50:49;10.60;;;4.90;;
47483;SDS011;54076;50.322;18.650;2023-04-03T21:55:56;12.70;;;4.90;;
47483;SDS011;54076;50.322;18.650;2023-04-03T22:01:09;12.30;;;4.70;;
47483;SDS011;54076;50.322;18.650;2023-04-03T22:06:14;12.80;;;4.50;;
47483;SDS011;54076;50.322;18.650;2023-04-03T22:11:17;9.60;;;4.40;;
47483;SDS011;54076;50.322;18.650;2023-04-03T22:16:19;10.90;;;4.30;;
47483;SDS011;54076;50.322;18.650;2023-04-03T22:21:24;13.00;;;4.60;;
47483;SDS011;54076;50.322;18.650;2023-04-03T22:26:25;8.90;;;4.20;;
47483;SDS011;54076;50.322;18.650;2023-04-03T22:31:26;10.00;;;4.30;;
47483;SDS011;54076;50.322;18.650;2023-04-03T22:36:27;10.80;;;4.30;;
47483;SDS011;54076;50.322;18.650;2023-04-03T22:41:28;9.70;;;3.80;;
47483;SDS011;54076;50.322;18.650;2023-04-03T22:46:29;8.70;;;4.30;;
47483;SDS011;54076;50.322;18.650;2023-04-03T22:51:31;9.70;;;4.00;;
47483;SDS011;54076;50.322;18.650;2023-04-03T22:56:32;10.10;;;3.80;;
47483;SDS011;54076;50.322;18.650;2023-04-03T23:01:34;10.30;;;3.50;;
47483;SDS011;54076;50.322;18.650;2023-04-03T23:06:35;10.70;;;4.00;;
47483;SDS011;54076;50.322;18.650;2023-04-03T23:11:36;8.80;;;4.30;;
47483;SDS011;54076;50.322;18.650;2023-04-03T23:16:37;8.80;;;4.00;;
47483;SDS011;54076;50.322;18.650;2023-04-03T23:21:38;7.80;;;3.50;;
47483;SDS011;54076;50.322;18.650;2023-04-03T23:26:39;11.00;;;3.70;;
47483;SDS011;54076;50.322;18.650;2023-04-03T23:31:40;6.40;;;3.50;;
47483;SDS011;54076;50.322;18.650;2023-04-03T23:36:41;8.80;;;3.50;;
47483;SDS011;54076;50.322;18.650;2023-04-03T23:41:43;8.70;;;3.90;;
47483;SDS011;54076;50.322;18.650;2023-04-03T23:46:44;8.20;;;3.40;;
47483;SDS011;54076;50.322;18.650;2023-04-03T23:51:45;7.50;;;3.30;;
47483;SDS011;54076;50.322;18.650;2023-04-03T23:56:47;9.40;;;3.50;;
